Terminal Aerodrome Forecast
Issued by NWS Wakefield, VA

Home | Current Version | Previous Version | Text Only | Print | Product List | Glossary On
Versions: 1 2 3 4 5 6 7 8 9 10 11 12 13 14 15 16 17 18 19 20
000
FTUS41 KAKQ 031100
TAFRIC
TAF
KRIC 031140Z 0312/0412 07003KT P6SM SCT050 BKN250
     FM031400 13005KT P6SM OVC050
     FM032100 18008KT 4SM -RA SCT012 OVC040
     FM040300 21011KT 4SM BR OVC005=

USA.gov is the U.S. government's official web portal to all federal, state and local government web resources and services.